createdAt,value
2017-12-14T00:00:12.626Z,945.07
2017-12-14T00:15:07.629Z,951.46
2017-12-14T00:30:04.788Z,950.94
2017-12-14T00:45:05.096Z,950.57
2017-12-14T01:00:04.846Z,950.7
2017-12-14T01:15:05.340Z,943.57
2017-12-14T01:30:04.509Z,950.51
2017-12-14T01:45:04.882Z,949.78
2017-12-14T02:00:05.591Z,949.41
2017-12-14T02:15:06.407Z,949.38
2017-12-14T02:30:04.792Z,949.19
2017-12-14T02:45:05.269Z,948.43
2017-12-14T03:00:05.047Z,947.71
2017-12-14T03:15:05.183Z,946.49
2017-12-14T03:30:06.572Z,946.92
2017-12-14T03:45:05.755Z,947.3
2017-12-14T04:00:06.528Z,947.54
2017-12-14T04:15:05.489Z,947.84
2017-12-14T04:30:05.334Z,948.76
2017-12-14T04:45:04.715Z,948.38
2017-12-14T05:00:04.901Z,948.73
2017-12-14T05:15:07.991Z,949.46
2017-12-14T05:30:05.135Z,949
2017-12-14T05:45:11.816Z,948.65
2017-12-14T06:00:05.816Z,949.94
2017-12-14T06:15:05.230Z,950.7
2017-12-14T06:30:04.899Z,953.96
2017-12-14T06:45:08.413Z,949.05
2017-12-14T07:00:04.764Z,949.86
2017-12-14T07:15:08.241Z,950.07
2017-12-14T07:30:05.978Z,949.72
2017-12-14T07:45:04.395Z,948.92
2017-12-14T08:00:07.509Z,948.73
2017-12-14T08:15:04.831Z,949.72
2017-12-14T08:30:04.496Z,955.88
2017-12-14T08:45:05.919Z,955.53
2017-12-14T09:00:05.299Z,949.19
2017-12-14T09:15:05.051Z,948.81
2017-12-14T09:30:05.195Z,948.68
2017-12-14T09:45:05.072Z,955.37
2017-12-14T10:00:04.997Z,954.8
2017-12-14T10:15:05.924Z,955.1
2017-12-14T10:30:08.090Z,955.04
2017-12-14T10:45:04.979Z,948.49
2017-12-14T11:00:04.839Z,954.37
2017-12-14T11:15:05.245Z,954.1
2017-12-14T11:30:05.004Z,954.07
2017-12-14T11:45:04.931Z,954.45
2017-12-14T12:00:05.270Z,949.24
2017-12-14T12:15:06.248Z,949.59
2017-12-14T12:30:05.969Z,947.55
2017-12-14T12:45:04.474Z,953.94
2017-12-14T13:00:04.350Z,952.97
2017-12-14T13:15:04.833Z,947.13
2017-12-14T13:30:05.011Z,947.55
2017-12-14T13:45:04.433Z,948.3
2017-12-14T14:00:04.798Z,948.04
2017-12-14T14:15:04.799Z,948.04
2017-12-14T14:30:04.476Z,947.42
2017-12-14T14:45:05.968Z,947.26
2017-12-14T15:00:06.010Z,946.97
2017-12-14T15:15:04.371Z,946.75
2017-12-14T15:30:05.016Z,945.39
2017-12-14T15:45:07.553Z,946.08
2017-12-14T16:01:12.630Z,945.36
2017-12-14T16:15:04.978Z,945.12
2017-12-14T16:30:05.050Z,943.73
2017-12-14T16:45:05.525Z,950.81
2017-12-14T17:00:04.956Z,950.57
2017-12-14T17:15:04.392Z,943.36
2017-12-14T17:30:11.697Z,943.89
2017-12-14T17:45:40.209Z,944.48
2017-12-14T18:00:04.675Z,942.85
2017-12-14T18:15:05.620Z,942.39
2017-12-14T18:30:05.720Z,942.45
2017-12-14T18:45:05.213Z,942.07
2017-12-14T19:00:04.605Z,942.23
2017-12-14T19:15:07.488Z,942.55
2017-12-14T19:30:05.041Z,942.82
2017-12-14T19:45:04.899Z,942.37
2017-12-14T20:00:06.462Z,942.12
2017-12-14T20:15:04.847Z,941.78
2017-12-14T20:30:04.966Z,941.54
2017-12-14T20:45:04.849Z,942.18
2017-12-14T21:00:21.249Z,941.96
2017-12-14T21:15:04.590Z,941.03
2017-12-14T21:30:07.702Z,942.58
2017-12-14T21:45:07.581Z,942.9
2017-12-14T22:00:06.578Z,942.71
2017-12-14T22:15:04.492Z,942.45
2017-12-14T22:30:04.972Z,943.65
2017-12-14T22:45:06.203Z,944.16
2017-12-14T23:00:05.412Z,943.57
2017-12-14T23:15:04.852Z,942.71
2017-12-14T23:30:07.853Z,942.87
2017-12-14T23:45:14.601Z,941.35
